Agana Heights, GU

10:08 PM ChST on October 25, 2014 (GMT +1000)
Maite | Change Station
CLOSE
Current Station
Personal Weather Station
Location: Maite, GU
Elevation: 140 ft
Nearby Weather Stations
Active Advisory: High Surf Advisory

Elev 140 ft 13.48 °N, 144.76 °E | Updated 9 seconds ago

Scattered Clouds
Scattered Clouds
80.6 °F
Feels Like 87 °F
N
1.0
Wind Variable Wind from East
Gusts 5.0 mph

Today
High -- | Low -- °F
--% Chance of Precip.
Yesterday
High -- | Low -- °F
Precip. -- in
6:13 AM 5:56 PM
Waxing Crescent, 3% visible
Pressure 29.91 in
Visibility 10.0 miles
Clouds Few 2000 ft
Scattered Clouds 5000 ft
Scattered Clouds 10000 ft
Heat Index 87 °F
Dew Point 77 °F
Humidity 89%
Rainfall 0.02 in
Snow Depth Not available.
UV 0.0 out of 12
Pollen Not available.
Air Quality Not available.
Flu Activity Widespread
METAR PGUM 251154Z 09006KT 10SM FEW020 SCT050 SCT100 27/24 A2993 RMK AO2 RAB00E23 SLP127 P0003 60003 70009 T02720244 10294 20267 50003 $

More Conditions Fewer Conditions

Pressure 29.91 in
Visibility 10.0 miles
Clouds Few 2000 ft
Scattered Clouds 5000 ft
Scattered Clouds 10000 ft
Heat Index 87 °F
Dew Point 77 °F
Humidity 89%
Rainfall 0.02 in
Snow Depth Not available.
UV 0.0 out of 12
Pollen Not available.
Air Quality Not available.
Flu Activity Widespread
METAR PGUM 251154Z 09006KT 10SM FEW020 SCT050 SCT100 27/24 A2993 RMK AO2 RAB00E23 SLP127 P0003 60003 70009 T02720244 10294 20267 50003 $

More Conditions Fewer Conditions

10-Day Weather Forecast

Almanac

Astronomy

Oct. 25, 2014 Rise Set
Actual Time 6:13 AM ChST 5:56 PM ChST
Civil Twilight 5:51 AM ChST 6:18 PM ChST
Nautical Twilight 5:26 AM ChST 6:43 PM ChST
Astronomical Twilight 5:01 AM ChST 7:08 PM ChST
Moon 7:06 AM ChST 7:01 PM ChST
Length of Visible Light 12h 26m
Length of Day
11h 43m
Tomorrow will be 0m 41s shorter.
Waxing Crescent, 3% of the Moon is Illuminated
Today
Waxing Crescent
Oct 30
First Quarter
Nov 6
Full
Nov 14
Last Quarter
Nov 22
New

Community

WunderPhotos

Upload Photos

1,764,816 photos uploaded!

Nearby

Snow Depth

Station Depth Elevation
No new snow has been reported.

Earthquake Activity

City Distance Mag. Time & Date
No recent earthquake activity has been reported nearby.
Minimum magnitude displayed is 2.5.

Coastal Water Temperatures

Place Temperature
No Stations Reporting

Nearby Weather Stations